sensor_id;sensor_type;location;lat;lon;timestamp;pressure;altitude;pressure_sealevel;temperature
41593;BMP180;28026;48.562;14.440;2022-07-01T00:01:09;93521.00;;;28.30
41593;BMP180;28026;48.562;14.440;2022-07-01T00:03:40;93516.00;;;28.30
41593;BMP180;28026;48.562;14.440;2022-07-01T00:06:19;93530.00;;;28.20
41593;BMP180;28026;48.562;14.440;2022-07-01T00:08:50;93535.00;;;28.20
41593;BMP180;28026;48.562;14.440;2022-07-01T00:11:21;93535.00;;;28.20
41593;BMP180;28026;48.562;14.440;2022-07-01T00:13:52;93532.00;;;28.20
41593;BMP180;28026;48.562;14.440;2022-07-01T00:16:23;93526.00;;;28.10
41593;BMP180;28026;48.562;14.440;2022-07-01T00:18:54;93529.00;;;28.10
41593;BMP180;28026;48.562;14.440;2022-07-01T00:21:25;93533.00;;;28.10
41593;BMP180;28026;48.562;14.440;2022-07-01T00:23:56;93521.00;;;28.20
41593;BMP180;28026;48.562;14.440;2022-07-01T00:26:27;93520.00;;;28.10
41593;BMP180;28026;48.562;14.440;2022-07-01T00:28:58;93518.00;;;28.00
41593;BMP180;28026;48.562;14.440;2022-07-01T00:31:29;93514.00;;;28.00
41593;BMP180;28026;48.562;14.440;2022-07-01T00:34:01;93494.00;;;28.00
41593;BMP180;28026;48.562;14.440;2022-07-01T00:36:32;93499.00;;;27.90
41593;BMP180;28026;48.562;14.440;2022-07-01T00:39:03;93493.00;;;27.80
41593;BMP180;28026;48.562;14.440;2022-07-01T00:41:34;93482.00;;;27.80
41593;BMP180;28026;48.562;14.440;2022-07-01T00:44:05;93477.00;;;27.70
41593;BMP180;28026;48.562;14.440;2022-07-01T00:46:36;93508.00;;;27.70
41593;BMP180;28026;48.562;14.440;2022-07-01T00:49:07;93521.00;;;27.60
41593;BMP180;28026;48.562;14.440;2022-07-01T00:51:38;93506.00;;;27.40
41593;BMP180;28026;48.562;14.440;2022-07-01T00:54:10;93489.00;;;27.40
41593;BMP180;28026;48.562;14.440;2022-07-01T00:56:42;93485.00;;;27.40
41593;BMP180;28026;48.562;14.440;2022-07-01T00:59:14;93473.00;;;27.40
41593;BMP180;28026;48.562;14.440;2022-07-01T01:01:45;93473.00;;;27.40
41593;BMP180;28026;48.562;14.440;2022-07-01T01:04:16;93486.00;;;27.40
41593;BMP180;28026;48.562;14.440;2022-07-01T01:06:47;93480.00;;;27.40
41593;BMP180;28026;48.562;14.440;2022-07-01T01:09:18;93479.00;;;27.40
41593;BMP180;28026;48.562;14.440;2022-07-01T01:11:50;93484.00;;;27.40
41593;BMP180;28026;48.562;14.440;2022-07-01T01:14:21;93492.00;;;27.30
41593;BMP180;28026;48.562;14.440;2022-07-01T01:16:53;93485.00;;;27.20
41593;BMP180;28026;48.562;14.440;2022-07-01T01:19:24;93474.00;;;27.20
41593;BMP180;28026;48.562;14.440;2022-07-01T01:21:54;93482.00;;;27.10
41593;BMP180;28026;48.562;14.440;2022-07-01T01:24:26;93487.00;;;27.10
41593;BMP180;28026;48.562;14.440;2022-07-01T01:26:57;93483.00;;;26.90
41593;BMP180;28026;48.562;14.440;2022-07-01T01:29:28;93481.00;;;26.80
41593;BMP180;28026;48.562;14.440;2022-07-01T01:31:59;93476.00;;;26.80
41593;BMP180;28026;48.562;14.440;2022-07-01T01:34:30;93467.00;;;26.80
41593;BMP180;28026;48.562;14.440;2022-07-01T01:37:01;93478.00;;;26.80
41593;BMP180;28026;48.562;14.440;2022-07-01T01:39:31;93484.00;;;26.80
41593;BMP180;28026;48.562;14.440;2022-07-01T01:42:05;93495.00;;;26.80
41593;BMP180;28026;48.562;14.440;2022-07-01T01:44:36;93494.00;;;26.80
41593;BMP180;28026;48.562;14.440;2022-07-01T01:47:07;93489.00;;;26.70
41593;BMP180;28026;48.562;14.440;2022-07-01T01:49:38;93485.00;;;26.60
41593;BMP180;28026;48.562;14.440;2022-07-01T01:52:09;93477.00;;;26.60
41593;BMP180;28026;48.562;14.440;2022-07-01T01:54:40;93495.00;;;26.70
41593;BMP180;28026;48.562;14.440;2022-07-01T01:57:11;93496.00;;;26.70
41593;BMP180;28026;48.562;14.440;2022-07-01T01:59:43;93497.00;;;26.70
41593;BMP180;28026;48.562;14.440;2022-07-01T02:02:14;93509.00;;;26.70
41593;BMP180;28026;48.562;14.440;2022-07-01T02:04:45;93498.00;;;26.70
41593;BMP180;28026;48.562;14.440;2022-07-01T02:07:16;93490.00;;;26.80
41593;BMP180;28026;48.562;14.440;2022-07-01T02:09:47;93493.00;;;26.80
41593;BMP180;28026;48.562;14.440;2022-07-01T02:12:18;93496.00;;;26.80
41593;BMP180;28026;48.562;14.440;2022-07-01T02:14:49;93482.00;;;26.80
41593;BMP180;28026;48.562;14.440;2022-07-01T02:17:20;93497.00;;;26.80
41593;BMP180;28026;48.562;14.440;2022-07-01T02:19:51;93491.00;;;26.80
41593;BMP180;28026;48.562;14.440;2022-07-01T02:22:22;93490.00;;;26.80
41593;BMP180;28026;48.562;14.440;2022-07-01T02:24:53;93495.00;;;26.80
41593;BMP180;28026;48.562;14.440;2022-07-01T02:27:24;93493.00;;;26.80
41593;BMP180;28026;48.562;14.440;2022-07-01T02:29:55;93491.00;;;26.80
41593;BMP180;28026;48.562;14.440;2022-07-01T02:32:26;93494.00;;;26.80
41593;BMP180;28026;48.562;14.440;2022-07-01T02:34:57;93483.00;;;26.90
41593;BMP180;28026;48.562;14.440;2022-07-01T02:37:28;93484.00;;;26.90
41593;BMP180;28026;48.562;14.440;2022-07-01T02:39:59;93481.00;;;26.90
41593;BMP180;28026;48.562;14.440;2022-07-01T02:42:30;93498.00;;;26.90
41593;BMP180;28026;48.562;14.440;2022-07-01T02:45:07;93519.00;;;26.90
41593;BMP180;28026;48.562;14.440;2022-07-01T02:47:42;93538.00;;;26.80
41593;BMP180;28026;48.562;14.440;2022-07-01T02:50:14;93537.00;;;26.60
41593;BMP180;28026;48.562;14.440;2022-07-01T02:52:46;93540.00;;;26.50
41593;BMP180;28026;48.562;14.440;2022-07-01T02:55:17;93538.00;;;26.40
41593;BMP180;28026;48.562;14.440;2022-07-01T02:57:48;93543.00;;;26.40
41593;BMP180;28026;48.562;14.440;2022-07-01T03:00:22;93557.00;;;26.40
41593;BMP180;28026;48.562;14.440;2022-07-01T03:02:53;93562.00;;;26.40
41593;BMP180;28026;48.562;14.440;2022-07-01T03:05:24;93546.00;;;26.40
41593;BMP180;28026;48.562;14.440;2022-07-01T03:07:55;93561.00;;;26.30
41593;BMP180;28026;48.562;14.440;2022-07-01T03:10:26;93565.00;;;26.40
41593;BMP180;28026;48.562;14.440;2022-07-01T03:12:57;93568.00;;;26.40
41593;BMP180;28026;48.562;14.440;2022-07-01T03:15:29;93564.00;;;26.50
41593;BMP180;28026;48.562;14.440;2022-07-01T03:18:00;93566.00;;;26.40
41593;BMP180;28026;48.562;14.440;2022-07-01T03:20:31;93571.00;;;26.20
41593;BMP180;28026;48.562;14.440;2022-07-01T03:23:02;93578.00;;;26.10
41593;BMP180;28026;48.562;14.440;2022-07-01T03:25:33;93563.00;;;26.00
41593;BMP180;28026;48.562;14.440;2022-07-01T03:28:06;93569.00;;;26.00
41593;BMP180;28026;48.562;14.440;2022-07-01T03:30:37;93571.00;;;25.90
41593;BMP180;28026;48.562;14.440;2022-07-01T03:33:08;93575.00;;;25.90
41593;BMP180;28026;48.562;14.440;2022-07-01T03:35:39;93589.00;;;25.90
41593;BMP180;28026;48.562;14.440;2022-07-01T03:38:12;93596.00;;;25.90
41593;BMP180;28026;48.562;14.440;2022-07-01T03:40:43;93594.00;;;25.80
41593;BMP180;28026;48.562;14.440;2022-07-01T03:43:14;93603.00;;;25.80
41593;BMP180;28026;48.562;14.440;2022-07-01T03:45:45;93616.00;;;25.90
41593;BMP180;28026;48.562;14.440;2022-07-01T03:48:16;93617.00;;;26.00
41593;BMP180;28026;48.562;14.440;2022-07-01T03:50:47;93622.00;;;26.00
41593;BMP180;28026;48.562;14.440;2022-07-01T03:53:18;93634.00;;;26.20
41593;BMP180;28026;48.562;14.440;2022-07-01T03:56:08;93634.00;;;26.30
41593;BMP180;28026;48.562;14.440;2022-07-01T03:58:38;93636.00;;;26.40
41593;BMP180;28026;48.562;14.440;2022-07-01T04:01:09;93643.00;;;26.40
41593;BMP180;28026;48.562;14.440;2022-07-01T04:03:40;93655.00;;;26.30
41593;BMP180;28026;48.562;14.440;2022-07-01T04:06:11;93656.00;;;26.30
41593;BMP180;28026;48.562;14.440;2022-07-01T04:08:43;93655.00;;;26.30
41593;BMP180;28026;48.562;14.440;2022-07-01T04:11:16;93659.00;;;26.40
41593;BMP180;28026;48.562;14.440;2022-07-01T04:13:48;93663.00;;;26.40
41593;BMP180;28026;48.562;14.440;2022-07-01T04:16:22;93660.00;;;26.40
41593;BMP180;28026;48.562;14.440;2022-07-01T04:18:56;93664.00;;;26.40
41593;BMP180;28026;48.562;14.440;2022-07-01T04:21:28;93664.00;;;26.40
41593;BMP180;28026;48.562;14.440;2022-07-01T04:24:18;93669.00;;;26.40
41593;BMP180;28026;48.562;14.440;2022-07-01T04:26:50;93660.00;;;26.40
41593;BMP180;28026;48.562;14.440;2022-07-01T04:29:21;93679.00;;;26.30
41593;BMP180;28026;48.562;14.440;2022-07-01T04:31:52;93659.00;;;26.20
41593;BMP180;28026;48.562;14.440;2022-07-01T04:34:24;93672.00;;;26.10
41593;BMP180;28026;48.562;14.440;2022-07-01T04:36:56;93670.00;;;26.00
41593;BMP180;28026;48.562;14.440;2022-07-01T04:39:27;93671.00;;;25.90
41593;BMP180;28026;48.562;14.440;2022-07-01T04:41:58;93676.00;;;25.80
41593;BMP180;28026;48.562;14.440;2022-07-01T04:44:37;93688.00;;;25.70
41593;BMP180;28026;48.562;14.440;2022-07-01T04:47:08;93691.00;;;25.70
41593;BMP180;28026;48.562;14.440;2022-07-01T04:49:39;93687.00;;;25.80
41593;BMP180;28026;48.562;14.440;2022-07-01T04:52:10;93691.00;;;25.80
41593;BMP180;28026;48.562;14.440;2022-07-01T04:54:41;93693.00;;;25.80
41593;BMP180;28026;48.562;14.440;2022-07-01T04:57:12;93701.00;;;25.80
41593;BMP180;28026;48.562;14.440;2022-07-01T04:59:43;93697.00;;;25.80
41593;BMP180;28026;48.562;14.440;2022-07-01T05:02:14;93698.00;;;25.80
41593;BMP180;28026;48.562;14.440;2022-07-01T05:04:44;93692.00;;;25.90
41593;BMP180;28026;48.562;14.440;2022-07-01T05:07:15;93691.00;;;25.90
41593;BMP180;28026;48.562;14.440;2022-07-01T05:09:59;93685.00;;;25.90
41593;BMP180;28026;48.562;14.440;2022-07-01T05:12:30;93691.00;;;25.90
41593;BMP180;28026;48.562;14.440;2022-07-01T05:15:01;93692.00;;;26.00
41593;BMP180;28026;48.562;14.440;2022-07-01T05:17:32;93688.00;;;26.10
41593;BMP180;28026;48.562;14.440;2022-07-01T05:20:30;93695.00;;;26.20
41593;BMP180;28026;48.562;14.440;2022-07-01T05:23:20;93695.00;;;26.30
41593;BMP180;28026;48.562;14.440;2022-07-01T05:25:51;93699.00;;;26.40
41593;BMP180;28026;48.562;14.440;2022-07-01T05:28:22;93714.00;;;26.40
41593;BMP180;28026;48.562;14.440;2022-07-01T05:30:53;93714.00;;;26.40
41593;BMP180;28026;48.562;14.440;2022-07-01T05:33:24;93714.00;;;26.40
41593;BMP180;28026;48.562;14.440;2022-07-01T05:35:58;93717.00;;;26.40
41593;BMP180;28026;48.562;14.440;2022-07-01T05:38:29;93718.00;;;26.30
41593;BMP180;28026;48.562;14.440;2022-07-01T05:41:00;93716.00;;;26.20
41593;BMP180;28026;48.562;14.440;2022-07-01T05:43:33;93722.00;;;26.10
41593;BMP180;28026;48.562;14.440;2022-07-01T05:46:04;93713.00;;;26.00
41593;BMP180;28026;48.562;14.440;2022-07-01T05:48:35;93715.00;;;25.90
41593;BMP180;28026;48.562;14.440;2022-07-01T05:51:06;93720.00;;;25.90
41593;BMP180;28026;48.562;14.440;2022-07-01T05:53:37;93723.00;;;25.80
41593;BMP180;28026;48.562;14.440;2022-07-01T05:56:09;93733.00;;;25.80
41593;BMP180;28026;48.562;14.440;2022-07-01T05:58:41;93711.00;;;25.90
41593;BMP180;28026;48.562;14.440;2022-07-01T06:01:11;93711.00;;;25.90
41593;BMP180;28026;48.562;14.440;2022-07-01T06:03:42;93722.00;;;25.90
41593;BMP180;28026;48.562;14.440;2022-07-01T06:06:14;93725.00;;;25.90
41593;BMP180;28026;48.562;14.440;2022-07-01T06:08:45;93719.00;;;25.90
41593;BMP180;28026;48.562;14.440;2022-07-01T06:11:16;93722.00;;;25.80
41593;BMP180;28026;48.562;14.440;2022-07-01T06:13:47;93732.00;;;25.80
41593;BMP180;28026;48.562;14.440;2022-07-01T06:16:18;93733.00;;;25.80
41593;BMP180;28026;48.562;14.440;2022-07-01T06:18:49;93730.00;;;25.70
41593;BMP180;28026;48.562;14.440;2022-07-01T06:21:20;93720.00;;;25.70
41593;BMP180;28026;48.562;14.440;2022-07-01T06:23:51;93728.00;;;25.70
41593;BMP180;28026;48.562;14.440;2022-07-01T06:26:22;93732.00;;;25.60
41593;BMP180;28026;48.562;14.440;2022-07-01T06:28:53;93735.00;;;25.60
41593;BMP180;28026;48.562;14.440;2022-07-01T06:31:24;93743.00;;;25.50
41593;BMP180;28026;48.562;14.440;2022-07-01T06:33:55;93729.00;;;25.50
41593;BMP180;28026;48.562;14.440;2022-07-01T06:36:26;93739.00;;;25.50
41593;BMP180;28026;48.562;14.440;2022-07-01T06:38:57;93746.00;;;25.50
41593;BMP180;28026;48.562;14.440;2022-07-01T06:41:28;93747.00;;;25.40
41593;BMP180;28026;48.562;14.440;2022-07-01T06:44:01;93750.00;;;25.30
41593;BMP180;28026;48.562;14.440;2022-07-01T06:46:33;93751.00;;;25.30
41593;BMP180;28026;48.562;14.440;2022-07-01T06:49:04;93744.00;;;25.20
41593;BMP180;28026;48.562;14.440;2022-07-01T06:51:35;93744.00;;;25.30
41593;BMP180;28026;48.562;14.440;2022-07-01T06:54:06;93739.00;;;25.30
41593;BMP180;28026;48.562;14.440;2022-07-01T06:56:37;93750.00;;;25.40
41593;BMP180;28026;48.562;14.440;2022-07-01T06:59:09;93750.00;;;25.50
41593;BMP180;28026;48.562;14.440;2022-07-01T07:01:39;93756.00;;;25.50
41593;BMP180;28026;48.562;14.440;2022-07-01T07:04:11;93762.00;;;25.60
41593;BMP180;28026;48.562;14.440;2022-07-01T07:06:41;93772.00;;;25.60
41593;BMP180;28026;48.562;14.440;2022-07-01T07:09:12;93764.00;;;25.70
41593;BMP180;28026;48.562;14.440;2022-07-01T07:11:43;93775.00;;;25.70
41593;BMP180;28026;48.562;14.440;2022-07-01T07:14:14;93760.00;;;25.60
41593;BMP180;28026;48.562;14.440;2022-07-01T07:16:46;93772.00;;;25.60
41593;BMP180;28026;48.562;14.440;2022-07-01T07:19:17;93762.00;;;25.50
41593;BMP180;28026;48.562;14.440;2022-07-01T07:21:48;93767.00;;;25.50
41593;BMP180;28026;48.562;14.440;2022-07-01T07:24:18;93771.00;;;25.60
41593;BMP180;28026;48.562;14.440;2022-07-01T07:26:49;93763.00;;;25.60
41593;BMP180;28026;48.562;14.440;2022-07-01T07:29:20;93769.00;;;25.80
41593;BMP180;28026;48.562;14.440;2022-07-01T07:31:51;93761.00;;;25.90
41593;BMP180;28026;48.562;14.440;2022-07-01T07:34:22;93763.00;;;26.00
41593;BMP180;28026;48.562;14.440;2022-07-01T07:36:53;93762.00;;;26.00
41593;BMP180;28026;48.562;14.440;2022-07-01T07:39:24;93760.00;;;26.10
41593;BMP180;28026;48.562;14.440;2022-07-01T07:41:55;93759.00;;;26.20
41593;BMP180;28026;48.562;14.440;2022-07-01T07:44:26;93758.00;;;26.20
41593;BMP180;28026;48.562;14.440;2022-07-01T07:46:58;93771.00;;;26.30
41593;BMP180;28026;48.562;14.440;2022-07-01T07:49:29;93769.00;;;26.30
41593;BMP180;28026;48.562;14.440;2022-07-01T07:52:00;93771.00;;;26.40
41593;BMP180;28026;48.562;14.440;2022-07-01T07:54:31;93762.00;;;26.30
41593;BMP180;28026;48.562;14.440;2022-07-01T07:57:02;93775.00;;;26.40
41593;BMP180;28026;48.562;14.440;2022-07-01T07:59:34;93789.00;;;26.50
41593;BMP180;28026;48.562;14.440;2022-07-01T08:02:06;93780.00;;;26.50
41593;BMP180;28026;48.562;14.440;2022-07-01T08:04:38;93790.00;;;26.60
41593;BMP180;28026;48.562;14.440;2022-07-01T08:07:09;93790.00;;;26.60
41593;BMP180;28026;48.562;14.440;2022-07-01T08:09:40;93779.00;;;26.60
41593;BMP180;28026;48.562;14.440;2022-07-01T08:12:16;93774.00;;;26.60
41593;BMP180;28026;48.562;14.440;2022-07-01T08:14:48;93773.00;;;26.70
41593;BMP180;28026;48.562;14.440;2022-07-01T08:17:19;93783.00;;;27.00
41593;BMP180;28026;48.562;14.440;2022-07-01T08:19:50;93784.00;;;27.50
41593;BMP180;28026;48.562;14.440;2022-07-01T08:22:21;93790.00;;;27.80
41593;BMP180;28026;48.562;14.440;2022-07-01T08:24:52;93794.00;;;28.00
41593;BMP180;28026;48.562;14.440;2022-07-01T08:27:23;93803.00;;;28.30
41593;BMP180;28026;48.562;14.440;2022-07-01T08:29:54;93802.00;;;28.40
41593;BMP180;28026;48.562;14.440;2022-07-01T08:32:25;93797.00;;;28.50
41593;BMP180;28026;48.562;14.440;2022-07-01T08:34:56;93801.00;;;28.70
41593;BMP180;28026;48.562;14.440;2022-07-01T08:37:27;93795.00;;;28.90
41593;BMP180;28026;48.562;14.440;2022-07-01T08:39:58;93790.00;;;28.90
41593;BMP180;28026;48.562;14.440;2022-07-01T08:42:29;93782.00;;;28.90
41593;BMP180;28026;48.562;14.440;2022-07-01T08:45:00;93792.00;;;28.90
41593;BMP180;28026;48.562;14.440;2022-07-01T08:47:32;93795.00;;;28.80
41593;BMP180;28026;48.562;14.440;2022-07-01T08:50:03;93795.00;;;28.70
41593;BMP180;28026;48.562;14.440;2022-07-01T08:52:34;93788.00;;;28.70
41593;BMP180;28026;48.562;14.440;2022-07-01T08:55:07;93791.00;;;28.60
41593;BMP180;28026;48.562;14.440;2022-07-01T08:57:38;93789.00;;;28.60
41593;BMP180;28026;48.562;14.440;2022-07-01T09:00:09;93791.00;;;28.60
41593;BMP180;28026;48.562;14.440;2022-07-01T09:05:33;93801.00;;;28.50
41593;BMP180;28026;48.562;14.440;2022-07-01T09:08:06;93798.00;;;28.50
41593;BMP180;28026;48.562;14.440;2022-07-01T09:10:37;93802.00;;;28.50
41593;BMP180;28026;48.562;14.440;2022-07-01T09:13:11;93796.00;;;28.50
41593;BMP180;28026;48.562;14.440;2022-07-01T09:15:43;93789.00;;;28.70
41593;BMP180;28026;48.562;14.440;2022-07-01T09:18:16;93790.00;;;28.90
41593;BMP180;28026;48.562;14.440;2022-07-01T09:20:48;93787.00;;;29.00
41593;BMP180;28026;48.562;14.440;2022-07-01T09:23:20;93792.00;;;29.00
41593;BMP180;28026;48.562;14.440;2022-07-01T09:25:51;93791.00;;;29.00
41593;BMP180;28026;48.562;14.440;2022-07-01T09:28:24;93789.00;;;29.10
41593;BMP180;28026;48.562;14.440;2022-07-01T09:30:58;93794.00;;;29.20
41593;BMP180;28026;48.562;14.440;2022-07-01T09:33:29;93797.00;;;29.20
41593;BMP180;28026;48.562;14.440;2022-07-01T09:36:00;93801.00;;;29.00
41593;BMP180;28026;48.562;14.440;2022-07-01T09:38:31;93801.00;;;28.90
41593;BMP180;28026;48.562;14.440;2022-07-01T09:41:04;93795.00;;;28.80
41593;BMP180;28026;48.562;14.440;2022-07-01T09:43:37;93793.00;;;28.80
41593;BMP180;28026;48.562;14.440;2022-07-01T09:46:11;93802.00;;;28.70
41593;BMP180;28026;48.562;14.440;2022-07-01T09:48:45;93792.00;;;28.60
41593;BMP180;28026;48.562;14.440;2022-07-01T09:51:16;93799.00;;;28.50
41593;BMP180;28026;48.562;14.440;2022-07-01T09:53:47;93788.00;;;28.40
41593;BMP180;28026;48.562;14.440;2022-07-01T09:56:21;93791.00;;;28.40
41593;BMP180;28026;48.562;14.440;2022-07-01T09:58:52;93795.00;;;28.40
41593;BMP180;28026;48.562;14.440;2022-07-01T10:01:24;93780.00;;;28.50
41593;BMP180;28026;48.562;14.440;2022-07-01T10:03:56;93789.00;;;28.50
41593;BMP180;28026;48.562;14.440;2022-07-01T10:12:26;93788.00;;;28.70
41593;BMP180;28026;48.562;14.440;2022-07-01T10:15:05;93792.00;;;28.60
41593;BMP180;28026;48.562;14.440;2022-07-01T10:17:45;93790.00;;;28.60
41593;BMP180;28026;48.562;14.440;2022-07-01T10:20:24;93793.00;;;28.60
41593;BMP180;28026;48.562;14.440;2022-07-01T10:23:06;93794.00;;;28.60
41593;BMP180;28026;48.562;14.440;2022-07-01T10:25:47;93784.00;;;28.70
41593;BMP180;28026;48.562;14.440;2022-07-01T10:28:29;93792.00;;;28.60
41593;BMP180;28026;48.562;14.440;2022-07-01T10:31:18;93790.00;;;28.50
41593;BMP180;28026;48.562;14.440;2022-07-01T10:33:56;93791.00;;;28.50
41593;BMP180;28026;48.562;14.440;2022-07-01T10:36:32;93785.00;;;28.50
41593;BMP180;28026;48.562;14.440;2022-07-01T10:39:10;93791.00;;;28.60
41593;BMP180;28026;48.562;14.440;2022-07-01T10:41:56;93799.00;;;28.60
41593;BMP180;28026;48.562;14.440;2022-07-01T10:44:29;93797.00;;;28.60
41593;BMP180;28026;48.562;14.440;2022-07-01T10:47:07;93798.00;;;28.70
41593;BMP180;28026;48.562;14.440;2022-07-01T10:52:14;93791.00;;;28.90
41593;BMP180;28026;48.562;14.440;2022-07-01T10:54:50;93792.00;;;28.90
41593;BMP180;28026;48.562;14.440;2022-07-01T10:57:38;93792.00;;;28.90
41593;BMP180;28026;48.562;14.440;2022-07-01T11:00:26;93800.00;;;28.80
41593;BMP180;28026;48.562;14.440;2022-07-01T11:03:22;93799.00;;;28.70
41593;BMP180;28026;48.562;14.440;2022-07-01T11:05:54;93794.00;;;28.70
41593;BMP180;28026;48.562;14.440;2022-07-01T11:08:26;93801.00;;;28.80
41593;BMP180;28026;48.562;14.440;2022-07-01T11:11:01;93800.00;;;28.90
41593;BMP180;28026;48.562;14.440;2022-07-01T11:13:35;93795.00;;;29.00
41593;BMP180;28026;48.562;14.440;2022-07-01T11:16:08;93802.00;;;29.00
41593;BMP180;28026;48.562;14.440;2022-07-01T11:18:40;93800.00;;;29.00
41593;BMP180;28026;48.562;14.440;2022-07-01T11:21:11;93803.00;;;29.00
41593;BMP180;28026;48.562;14.440;2022-07-01T11:23:54;93794.00;;;29.00
41593;BMP180;28026;48.562;14.440;2022-07-01T11:26:25;93791.00;;;29.10
41593;BMP180;28026;48.562;14.440;2022-07-01T11:28:56;93784.00;;;29.20
41593;BMP180;28026;48.562;14.440;2022-07-01T11:31:32;93800.00;;;29.30
41593;BMP180;28026;48.562;14.440;2022-07-01T11:34:05;93789.00;;;29.40
41593;BMP180;28026;48.562;14.440;2022-07-01T11:36:44;93791.00;;;29.40
41593;BMP180;28026;48.562;14.440;2022-07-01T11:39:34;93790.00;;;29.50
41593;BMP180;28026;48.562;14.440;2022-07-01T11:42:07;93795.00;;;29.50
41593;BMP180;28026;48.562;14.440;2022-07-01T11:44:42;93791.00;;;29.60
41593;BMP180;28026;48.562;14.440;2022-07-01T11:47:25;93792.00;;;29.60
41593;BMP180;28026;48.562;14.440;2022-07-01T11:49:58;93785.00;;;29.70
41593;BMP180;28026;48.562;14.440;2022-07-01T11:52:31;93787.00;;;30.00
41593;BMP180;28026;48.562;14.440;2022-07-01T11:55:03;93780.00;;;30.10
41593;BMP180;28026;48.562;14.440;2022-07-01T11:57:35;93782.00;;;30.10
41593;BMP180;28026;48.562;14.440;2022-07-01T12:00:13;93784.00;;;30.20
41593;BMP180;28026;48.562;14.440;2022-07-01T12:02:49;93779.00;;;30.30
41593;BMP180;28026;48.562;14.440;2022-07-01T12:05:21;93786.00;;;30.40
41593;BMP180;28026;48.562;14.440;2022-07-01T12:07:52;93777.00;;;30.40
41593;BMP180;28026;48.562;14.440;2022-07-01T12:10:25;93776.00;;;30.40
41593;BMP180;28026;48.562;14.440;2022-07-01T12:12:59;93780.00;;;30.40
41593;BMP180;28026;48.562;14.440;2022-07-01T12:15:30;93795.00;;;30.40
41593;BMP180;28026;48.562;14.440;2022-07-01T12:18:07;93803.00;;;30.50
41593;BMP180;28026;48.562;14.440;2022-07-01T12:20:38;93806.00;;;30.50
41593;BMP180;28026;48.562;14.440;2022-07-01T12:23:15;93803.00;;;30.30
41593;BMP180;28026;48.562;14.440;2022-07-01T12:25:51;93798.00;;;30.10
41593;BMP180;28026;48.562;14.440;2022-07-01T12:28:30;93795.00;;;30.00
41593;BMP180;28026;48.562;14.440;2022-07-01T12:31:09;93800.00;;;30.00
41593;BMP180;28026;48.562;14.440;2022-07-01T12:33:50;93798.00;;;30.00
41593;BMP180;28026;48.562;14.440;2022-07-01T12:36:22;93795.00;;;30.10
41593;BMP180;28026;48.562;14.440;2022-07-01T12:39:06;93805.00;;;30.20
41593;BMP180;28026;48.562;14.440;2022-07-01T12:41:37;93797.00;;;30.30
41593;BMP180;28026;48.562;14.440;2022-07-01T12:44:26;93799.00;;;30.60
41593;BMP180;28026;48.562;14.440;2022-07-01T12:47:16;93797.00;;;30.80
41593;BMP180;28026;48.562;14.440;2022-07-01T12:50:17;93800.00;;;31.00
41593;BMP180;28026;48.562;14.440;2022-07-01T12:55:38;93799.00;;;30.70
41593;BMP180;28026;48.562;14.440;2022-07-01T12:58:35;93795.00;;;30.70
41593;BMP180;28026;48.562;14.440;2022-07-01T13:01:06;93793.00;;;30.90
41593;BMP180;28026;48.562;14.440;2022-07-01T13:03:37;93799.00;;;31.30
41593;BMP180;28026;48.562;14.440;2022-07-01T13:06:08;93793.00;;;31.80
41593;BMP180;28026;48.562;14.440;2022-07-01T13:08:39;93791.00;;;32.20
41593;BMP180;28026;48.562;14.440;2022-07-01T13:11:10;93797.00;;;32.20
41593;BMP180;28026;48.562;14.440;2022-07-01T13:13:41;93793.00;;;32.00
41593;BMP180;28026;48.562;14.440;2022-07-01T13:16:12;93803.00;;;31.80
41593;BMP180;28026;48.562;14.440;2022-07-01T13:18:43;93800.00;;;31.60
41593;BMP180;28026;48.562;14.440;2022-07-01T13:21:15;93806.00;;;31.60
41593;BMP180;28026;48.562;14.440;2022-07-01T13:23:46;93793.00;;;31.60
41593;BMP180;28026;48.562;14.440;2022-07-01T13:26:17;93806.00;;;31.70
41593;BMP180;28026;48.562;14.440;2022-07-01T13:28:49;93794.00;;;31.80
41593;BMP180;28026;48.562;14.440;2022-07-01T13:31:20;93794.00;;;31.90
41593;BMP180;28026;48.562;14.440;2022-07-01T13:33:51;93799.00;;;31.80
41593;BMP180;28026;48.562;14.440;2022-07-01T13:36:21;93803.00;;;31.80
41593;BMP180;28026;48.562;14.440;2022-07-01T13:38:53;93793.00;;;31.80
41593;BMP180;28026;48.562;14.440;2022-07-01T13:41:23;93802.00;;;31.80
41593;BMP180;28026;48.562;14.440;2022-07-01T13:43:54;93788.00;;;31.70
41593;BMP180;28026;48.562;14.440;2022-07-01T13:46:25;93789.00;;;31.90
41593;BMP180;28026;48.562;14.440;2022-07-01T13:48:56;93792.00;;;32.00
41593;BMP180;28026;48.562;14.440;2022-07-01T13:51:28;93790.00;;;32.20
41593;BMP180;28026;48.562;14.440;2022-07-01T13:53:59;93790.00;;;32.50
41593;BMP180;28026;48.562;14.440;2022-07-01T13:56:31;93785.00;;;32.80
41593;BMP180;28026;48.562;14.440;2022-07-01T13:59:03;93797.00;;;33.00
41593;BMP180;28026;48.562;14.440;2022-07-01T14:01:34;93814.00;;;32.90
41593;BMP180;28026;48.562;14.440;2022-07-01T14:04:05;93805.00;;;32.80
41593;BMP180;28026;48.562;14.440;2022-07-01T14:06:37;93821.00;;;32.50
41593;BMP180;28026;48.562;14.440;2022-07-01T14:09:08;93812.00;;;32.20
41593;BMP180;28026;48.562;14.440;2022-07-01T14:11:39;93825.00;;;32.00
41593;BMP180;28026;48.562;14.440;2022-07-01T14:14:11;93830.00;;;31.70
41593;BMP180;28026;48.562;14.440;2022-07-01T14:16:42;93830.00;;;31.40
41593;BMP180;28026;48.562;14.440;2022-07-01T14:19:13;93839.00;;;31.20
41593;BMP180;28026;48.562;14.440;2022-07-01T14:21:44;93845.00;;;31.00
41593;BMP180;28026;48.562;14.440;2022-07-01T14:24:15;93844.00;;;30.80
41593;BMP180;28026;48.562;14.440;2022-07-01T14:26:46;93864.00;;;30.70
41593;BMP180;28026;48.562;14.440;2022-07-01T14:29:17;93867.00;;;30.70
41593;BMP180;28026;48.562;14.440;2022-07-01T14:31:48;93867.00;;;30.60
41593;BMP180;28026;48.562;14.440;2022-07-01T14:34:19;93858.00;;;30.40
41593;BMP180;28026;48.562;14.440;2022-07-01T14:36:50;93854.00;;;30.40
41593;BMP180;28026;48.562;14.440;2022-07-01T14:39:21;93867.00;;;30.40
41593;BMP180;28026;48.562;14.440;2022-07-01T14:41:52;93876.00;;;30.30